createdAt,value
2023-04-28T00:00:29.829Z,35.37
2023-04-28T00:02:57.665Z,35.39
2023-04-28T00:05:25.452Z,35.40
2023-04-28T00:07:52.983Z,35.39
2023-04-28T00:10:20.711Z,35.42
2023-04-28T00:12:48.114Z,35.47
2023-04-28T00:15:16.149Z,35.50
2023-04-28T00:17:44.310Z,35.52
2023-04-28T00:20:11.929Z,35.54
2023-04-28T00:22:39.333Z,35.55
2023-04-28T00:25:07.469Z,35.57
2023-04-28T00:27:35.100Z,35.62
2023-04-28T00:30:02.739Z,35.62
2023-04-28T00:32:32.337Z,35.64
2023-04-28T00:34:59.741Z,35.66
2023-04-28T00:37:27.131Z,35.68
2023-04-28T00:39:56.283Z,35.72
2023-04-28T00:42:24.129Z,35.75
2023-04-28T00:44:51.806Z,35.75
2023-04-28T00:47:19.624Z,35.78
2023-04-28T00:49:47.699Z,35.80
2023-04-28T00:52:15.273Z,35.83
2023-04-28T00:54:42.923Z,35.85
2023-04-28T00:57:10.764Z,35.90
2023-04-28T00:59:38.811Z,35.86
2023-04-28T01:02:07.727Z,35.88
2023-04-28T01:04:35.294Z,35.90
2023-04-28T01:07:02.799Z,35.93
2023-04-28T01:09:30.655Z,36.00
2023-04-28T01:11:58.435Z,36.02
2023-04-28T01:14:26.702Z,36.06
2023-04-28T01:16:54.568Z,36.05
2023-04-28T01:19:22.474Z,36.08
2023-04-28T01:21:50.521Z,36.05
2023-04-28T01:24:18.586Z,36.10
2023-04-28T01:26:46.463Z,36.16
2023-04-28T01:29:14.029Z,36.16
2023-04-28T01:31:41.990Z,36.18
2023-04-28T01:34:09.531Z,36.19
2023-04-28T01:36:37.894Z,36.17
2023-04-28T01:39:05.952Z,36.17
2023-04-28T01:41:36.599Z,36.18
2023-04-28T01:44:06.204Z,36.18
2023-04-28T01:46:34.637Z,36.21
2023-04-28T01:49:02.172Z,36.20
2023-04-28T01:51:29.582Z,36.21
2023-04-28T01:53:57.541Z,36.24
2023-04-28T01:56:25.160Z,36.32
2023-04-28T01:58:52.820Z,36.35
2023-04-28T02:01:20.777Z,36.38
2023-04-28T02:03:49.248Z,36.42
2023-04-28T02:06:17.084Z,36.45
2023-04-28T02:08:44.526Z,36.44
2023-04-28T02:11:13.159Z,36.46
2023-04-28T02:13:40.752Z,36.47
2023-04-28T02:16:08.167Z,36.48
2023-04-28T02:18:36.311Z,36.49
2023-04-28T02:21:11.813Z,36.51
2023-04-28T02:23:39.930Z,36.53
2023-04-28T02:26:07.720Z,36.58
2023-04-28T02:28:35.117Z,36.57
2023-04-28T02:31:09.825Z,36.57
2023-04-28T02:33:37.884Z,36.57
2023-04-28T02:36:06.068Z,36.60
2023-04-28T02:38:33.502Z,36.61
2023-04-28T02:41:02.500Z,36.62
2023-04-28T02:43:30.429Z,36.66
2023-04-28T02:45:57.795Z,36.69
2023-04-28T02:48:25.895Z,36.68
2023-04-28T02:50:53.840Z,36.74
2023-04-28T02:53:21.740Z,36.76
2023-04-28T02:55:49.633Z,36.78
2023-04-28T02:58:18.184Z,36.78
2023-04-28T03:00:46.403Z,36.79
2023-04-28T03:03:14.589Z,36.79
2023-04-28T03:05:42.321Z,36.81
2023-04-28T03:08:09.755Z,36.85
2023-04-28T03:10:37.403Z,36.86
2023-04-28T03:13:04.984Z,36.87
2023-04-28T03:15:32.436Z,36.90
2023-04-28T03:18:00.168Z,36.89
2023-04-28T03:20:27.885Z,36.89
2023-04-28T03:22:55.879Z,36.89
2023-04-28T03:25:23.643Z,36.89
2023-04-28T03:27:51.560Z,36.89
2023-04-28T03:30:19.098Z,36.91
2023-04-28T03:32:46.910Z,36.95
2023-04-28T03:35:14.606Z,36.95
2023-04-28T03:37:42.201Z,36.98
2023-04-28T03:40:10.501Z,36.98
2023-04-28T03:42:39.365Z,37.02
2023-04-28T03:45:08.488Z,36.97
2023-04-28T03:47:36.443Z,36.99
2023-04-28T03:50:04.318Z,36.91
2023-04-28T03:52:31.772Z,36.79
2023-04-28T03:54:59.514Z,36.65
2023-04-28T03:57:26.983Z,36.55
2023-04-28T03:59:54.423Z,36.47
2023-04-28T04:02:22.319Z,36.43
2023-04-28T04:04:50.310Z,36.37
2023-04-28T04:07:17.912Z,36.33
2023-04-28T04:09:45.332Z,36.30
2023-04-28T04:12:13.025Z,34.68
2023-04-28T04:14:40.791Z,29.68
2023-04-28T04:17:08.300Z,29.27
2023-04-28T04:19:35.989Z,31.84
2023-04-28T04:22:03.384Z,32.68
2023-04-28T04:24:31.243Z,33.22
2023-04-28T04:26:58.975Z,33.43
2023-04-28T04:29:27.482Z,33.53
2023-04-28T04:31:55.150Z,33.58
2023-04-28T04:34:22.849Z,33.63
2023-04-28T04:36:50.542Z,33.66
2023-04-28T04:39:18.750Z,33.69
2023-04-28T04:41:48.141Z,33.68
2023-04-28T04:44:18.395Z,33.67
2023-04-28T04:46:47.241Z,33.67
2023-04-28T04:49:15.699Z,33.68
2023-04-28T04:51:43.232Z,33.67
2023-04-28T04:54:11.202Z,33.67
2023-04-28T04:56:39.556Z,33.66
2023-04-28T04:59:07.280Z,33.66
2023-04-28T05:01:36.045Z,33.66
2023-04-28T05:04:03.844Z,33.66
2023-04-28T05:06:31.880Z,33.65
2023-04-28T05:08:59.762Z,33.65
2023-04-28T05:11:27.356Z,33.68
2023-04-28T05:13:54.815Z,33.68
2023-04-28T05:16:23.493Z,33.71
2023-04-28T05:18:51.420Z,33.72
2023-04-28T05:21:18.989Z,33.75
2023-04-28T05:23:46.912Z,33.77
2023-04-28T05:26:14.385Z,33.79
2023-04-28T05:28:41.939Z,33.82
2023-04-28T05:31:09.716Z,33.85
2023-04-28T05:33:37.277Z,33.88
2023-04-28T05:36:05.624Z,33.91
2023-04-28T05:38:33.914Z,33.95
2023-04-28T05:41:02.033Z,34.00
2023-04-28T05:43:29.571Z,34.03
2023-04-28T05:45:57.464Z,34.05
2023-04-28T05:48:24.927Z,34.07
2023-04-28T05:50:52.294Z,34.10
2023-04-28T05:53:20.134Z,34.16
2023-04-28T05:55:48.274Z,34.20
2023-04-28T05:58:15.779Z,34.24
2023-04-28T06:00:43.795Z,34.26
2023-04-28T06:03:14.469Z,34.31
2023-04-28T06:05:42.348Z,34.34
2023-04-28T06:08:10.325Z,34.36
2023-04-28T06:10:38.065Z,34.40
2023-04-28T06:13:06.539Z,34.40
2023-04-28T06:15:34.124Z,34.42
2023-04-28T06:18:02.200Z,34.44
2023-04-28T06:20:29.634Z,34.48
2023-04-28T06:22:57.394Z,34.53
2023-04-28T06:25:25.076Z,34.54
2023-04-28T06:27:52.516Z,34.56
2023-04-28T06:30:24.586Z,34.60
2023-04-28T06:32:52.450Z,34.65
2023-04-28T06:35:19.929Z,34.68
2023-04-28T06:37:47.363Z,34.71
2023-04-28T06:40:15.973Z,34.74
2023-04-28T06:42:43.637Z,34.76
2023-04-28T06:45:11.777Z,34.77
2023-04-28T06:47:40.770Z,34.79
2023-04-28T06:50:09.330Z,34.80
2023-04-28T06:52:39.563Z,34.82
2023-04-28T06:55:09.426Z,34.83
2023-04-28T06:57:38.263Z,34.87
2023-04-28T07:00:06.521Z,34.85
2023-04-28T07:02:35.166Z,34.88
2023-04-28T07:05:03.657Z,34.90
2023-04-28T07:07:31.278Z,34.93
2023-04-28T07:10:00.441Z,34.95
2023-04-28T07:12:27.990Z,34.97
2023-04-28T07:14:56.195Z,35.00
2023-04-28T07:17:23.962Z,35.03
2023-04-28T07:19:51.376Z,35.04
2023-04-28T07:22:18.763Z,35.07
2023-04-28T07:24:46.486Z,35.08
2023-04-28T07:27:14.464Z,35.09
2023-04-28T07:29:42.240Z,35.10
2023-04-28T07:32:10.675Z,35.10
2023-04-28T07:34:38.443Z,35.11
2023-04-28T07:37:06.796Z,35.12
2023-04-28T07:39:35.343Z,35.12
2023-04-28T07:42:03.439Z,35.14
2023-04-28T07:44:31.355Z,35.15
2023-04-28T07:46:59.762Z,35.17
2023-04-28T07:49:28.517Z,35.20
2023-04-28T07:51:56.809Z,35.22
2023-04-28T07:54:24.989Z,35.22
2023-04-28T07:56:52.434Z,35.24
2023-04-28T07:59:19.859Z,35.26
2023-04-28T08:01:47.557Z,35.25
2023-04-28T08:04:15.542Z,35.28
2023-04-28T08:06:43.368Z,35.28
2023-04-28T08:09:10.812Z,35.30
2023-04-28T08:11:38.540Z,35.31
2023-04-28T08:14:06.024Z,35.31
2023-04-28T08:16:36.595Z,35.33
2023-04-28T08:19:04.469Z,35.33
2023-04-28T08:21:32.844Z,35.35
2023-04-28T08:24:00.222Z,35.37
2023-04-28T08:26:27.975Z,35.38
2023-04-28T08:28:55.408Z,35.40
2023-04-28T08:31:23.854Z,35.40
2023-04-28T08:33:51.653Z,35.42
2023-04-28T08:36:19.121Z,35.44
2023-04-28T08:38:46.925Z,35.45
2023-04-28T08:41:17.891Z,35.45
2023-04-28T08:43:45.717Z,35.49
2023-04-28T08:46:14.647Z,35.48
2023-04-28T08:48:45.158Z,35.50
2023-04-28T08:51:16.965Z,35.50
2023-04-28T08:54:11.726Z,35.52
2023-04-28T08:56:34.565Z,35.52
2023-04-28T08:59:04.248Z,35.52
2023-04-28T09:01:32.198Z,35.52
2023-04-28T09:04:03.462Z,35.52
2023-04-28T09:06:38.300Z,35.56
2023-04-28T09:09:28.374Z,35.56
2023-04-28T09:11:59.596Z,35.56
2023-04-28T09:14:32.974Z,35.60
2023-04-28T09:17:01.171Z,35.64
2023-04-28T09:19:36.246Z,35.62
2023-04-28T09:22:17.742Z,35.62
2023-04-28T09:24:53.230Z,35.65
2023-04-28T09:27:27.176Z,35.62
2023-04-28T09:29:54.617Z,35.63
2023-04-28T09:32:23.201Z,35.67
2023-04-28T09:34:56.631Z,35.68
2023-04-28T09:37:30.782Z,35.68
2023-04-28T09:40:09.431Z,35.69
2023-04-28T09:42:37.080Z,35.67
2023-04-28T09:45:06.003Z,35.69
2023-04-28T09:47:43.276Z,35.71
2023-04-28T09:50:17.200Z,35.71
2023-04-28T09:52:49.085Z,35.73
2023-04-28T09:55:17.760Z,35.73
2023-04-28T09:57:45.515Z,35.73
2023-04-28T10:00:15.125Z,35.73
2023-04-28T10:02:44.179Z,35.73
2023-04-28T10:05:12.278Z,35.73
2023-04-28T10:07:40.263Z,35.73
2023-04-28T10:10:08.365Z,35.74
2023-04-28T10:12:38.791Z,35.75
2023-04-28T10:15:07.798Z,35.76
2023-04-28T10:17:35.619Z,35.78
2023-04-28T10:20:03.522Z,35.77
2023-04-28T10:22:33.732Z,35.78
2023-04-28T10:25:36.879Z,35.79
2023-04-28T10:28:07.987Z,35.78
2023-04-28T10:30:36.131Z,35.78
2023-04-28T10:33:06.692Z,35.81
2023-04-28T10:35:36.398Z,35.83
2023-04-28T10:38:10.820Z,35.83
2023-04-28T10:40:45.465Z,35.83
2023-04-28T10:43:14.339Z,35.85
2023-04-28T10:46:01.753Z,35.86
2023-04-28T10:48:29.866Z,35.85
2023-04-28T10:51:06.992Z,35.85
2023-04-28T10:53:49.102Z,35.86
2023-04-28T10:56:21.608Z,35.88
2023-04-28T10:58:50.820Z,35.89
2023-04-28T11:01:21.571Z,35.89
2023-04-28T11:04:04.760Z,35.91
2023-04-28T11:06:36.705Z,35.92
2023-04-28T11:09:33.024Z,35.92
2023-04-28T11:12:00.346Z,35.88
2023-04-28T11:14:35.192Z,35.91
2023-04-28T11:17:04.160Z,35.93
2023-04-28T11:19:31.642Z,35.92
2023-04-28T11:22:03.158Z,35.92
2023-04-28T11:24:30.621Z,35.94
2023-04-28T11:26:58.910Z,35.92
2023-04-28T11:29:40.288Z,35.93
2023-04-28T11:32:09.454Z,35.93
2023-04-28T11:34:37.135Z,35.96
2023-04-28T11:37:05.998Z,35.96
2023-04-28T11:39:34.007Z,35.93
2023-04-28T11:42:09.950Z,35.39
2023-04-28T11:44:38.078Z,35.16
2023-04-28T11:47:06.318Z,34.84
2023-04-28T11:49:44.297Z,34.58
2023-04-28T11:52:12.280Z,34.25
2023-04-28T11:54:42.460Z,34.29
2023-04-28T11:57:19.378Z,34.00
2023-04-28T11:59:47.820Z,33.47
2023-04-28T12:02:17.055Z,33.22
2023-04-28T12:04:44.965Z,33.17
2023-04-28T12:07:18.659Z,33.03
2023-04-28T12:09:48.257Z,32.91
2023-04-28T12:15:05.597Z,32.74
2023-04-28T12:17:37.857Z,32.54
2023-04-28T12:20:11.756Z,32.45
2023-04-28T12:22:48.978Z,32.10
2023-04-28T12:25:17.849Z,32.07
2023-04-28T12:28:04.791Z,32.09
2023-04-28T12:30:33.993Z,32.28
2023-04-28T12:33:01.513Z,32.00
2023-04-28T12:35:29.079Z,31.72
2023-04-28T12:37:58.448Z,31.66
2023-04-28T12:40:26.228Z,31.61
2023-04-28T12:42:53.854Z,31.63
2023-04-28T12:45:21.916Z,31.52
2023-04-28T12:47:49.443Z,31.38
2023-04-28T12:50:16.904Z,31.34
2023-04-28T12:52:44.611Z,31.02
2023-04-28T12:55:12.035Z,30.88
2023-04-28T12:57:39.810Z,30.80
2023-04-28T13:00:08.789Z,30.61
2023-04-28T13:02:36.929Z,30.65
2023-04-28T13:05:04.697Z,30.63
2023-04-28T13:07:35.796Z,30.67
2023-04-28T13:10:03.208Z,30.59
2023-04-28T13:12:30.679Z,30.80
2023-04-28T13:14:58.374Z,30.87
2023-04-28T13:17:26.597Z,30.79
2023-04-28T13:19:54.287Z,30.77
2023-04-28T13:22:21.959Z,30.61
2023-04-28T13:24:49.342Z,30.65
2023-04-28T13:27:16.765Z,30.62
2023-04-28T13:29:44.553Z,30.73
2023-04-28T13:32:11.982Z,30.90
2023-04-28T13:34:40.236Z,30.81
2023-04-28T13:37:08.038Z,30.78
2023-04-28T13:39:35.510Z,30.85
2023-04-28T13:42:03.047Z,30.98
2023-04-28T13:44:30.793Z,31.01
2023-04-28T13:46:58.211Z,31.09
2023-04-28T13:49:25.728Z,31.17
2023-04-28T13:51:53.436Z,31.46
2023-04-28T13:54:21.422Z,31.56
2023-04-28T13:56:48.892Z,31.63
2023-04-28T13:59:16.751Z,31.51
2023-04-28T14:01:44.303Z,31.08
2023-04-28T14:04:12.279Z,30.97
2023-04-28T14:06:39.827Z,30.61
2023-04-28T14:09:07.379Z,30.55
2023-04-28T14:11:35.032Z,30.52
2023-04-28T14:14:02.586Z,30.52
2023-04-28T14:16:30.666Z,30.60
2023-04-28T14:18:58.860Z,30.51
2023-04-28T14:21:26.615Z,30.97
2023-04-28T14:23:54.129Z,31.30
2023-04-28T14:26:23.848Z,31.49
2023-04-28T14:28:51.266Z,31.55
2023-04-28T14:31:19.028Z,31.68
2023-04-28T14:33:46.988Z,31.96
2023-04-28T14:36:14.591Z,32.21
2023-04-28T14:38:42.161Z,32.27
2023-04-28T14:41:09.942Z,32.33
2023-04-28T14:43:38.083Z,32.77
2023-04-28T14:46:05.840Z,33.01
2023-04-28T14:48:33.593Z,33.28
2023-04-28T14:51:01.135Z,33.34
2023-04-28T14:53:28.678Z,33.31
2023-04-28T14:56:01.988Z,33.42
2023-04-28T14:58:35.365Z,33.60
2023-04-28T15:01:03.382Z,33.82
2023-04-28T15:03:30.986Z,34.00
2023-04-28T15:05:58.509Z,34.17
2023-04-28T15:08:27.716Z,34.27
2023-04-28T15:10:56.824Z,34.33
2023-04-28T15:13:28.568Z,34.36
2023-04-28T15:15:56.458Z,34.41
2023-04-28T15:18:24.498Z,34.54
2023-04-28T15:20:51.918Z,34.63
2023-04-28T15:23:20.313Z,34.64
2023-04-28T15:25:49.903Z,34.40
2023-04-28T15:28:17.333Z,34.09
2023-04-28T15:30:45.027Z,33.44
2023-04-28T15:33:17.754Z,33.05
2023-04-28T15:35:45.555Z,33.05
2023-04-28T15:38:13.043Z,33.01
2023-04-28T15:40:40.732Z,33.13
2023-04-28T15:43:08.423Z,33.29
2023-04-28T15:45:37.289Z,33.80
2023-04-28T15:48:09.174Z,33.97
2023-04-28T15:50:37.425Z,34.03
2023-04-28T15:53:04.804Z,34.01
2023-04-28T15:55:32.196Z,33.99
2023-04-28T15:58:00.805Z,33.87
2023-04-28T16:00:28.285Z,33.79
2023-04-28T16:02:56.043Z,33.67
2023-04-28T16:05:23.499Z,33.58
2023-04-28T16:07:52.630Z,33.52
2023-04-28T16:10:20.510Z,33.49
2023-04-28T16:12:47.959Z,33.42
2023-04-28T16:15:15.416Z,33.39
2023-04-28T16:17:44.291Z,33.33
2023-04-28T16:20:12.129Z,33.36
2023-04-28T16:22:40.055Z,33.37
2023-04-28T16:25:08.087Z,33.38
2023-04-28T16:27:35.631Z,33.42
2023-04-28T16:30:04.988Z,33.42
2023-04-28T16:32:33.589Z,33.42
2023-04-28T16:35:01.246Z,33.41
2023-04-28T16:37:28.767Z,33.46
2023-04-28T16:39:56.690Z,33.51
2023-04-28T16:42:24.119Z,33.72
2023-04-28T16:44:52.854Z,33.95
2023-04-28T16:47:21.132Z,34.05
2023-04-28T16:49:48.974Z,34.15
2023-04-28T16:52:16.777Z,34.27
2023-04-28T16:54:44.545Z,34.42
2023-04-28T16:57:11.959Z,34.50
2023-04-28T16:59:39.405Z,34.65
2023-04-28T17:02:07.224Z,34.75
2023-04-28T17:04:35.386Z,34.82
2023-04-28T17:07:06.268Z,34.95
2023-04-28T17:09:33.989Z,35.00
2023-04-28T17:12:01.457Z,35.14
2023-04-28T17:14:28.823Z,35.19
2023-04-28T17:16:56.606Z,35.27
2023-04-28T17:19:23.993Z,35.35
2023-04-28T17:21:52.818Z,35.45
2023-04-28T17:24:20.608Z,35.48
2023-04-28T17:26:48.016Z,35.48
2023-04-28T17:29:15.534Z,35.50
2023-04-28T17:31:43.372Z,35.55
2023-04-28T17:34:11.033Z,35.56
2023-04-28T17:36:38.533Z,35.62
2023-04-28T17:39:06.217Z,35.66
2023-04-28T17:41:33.707Z,35.70
2023-04-28T17:44:01.609Z,35.65
2023-04-28T17:46:29.486Z,35.61
2023-04-28T17:48:56.876Z,35.67
2023-04-28T17:51:24.538Z,35.65
2023-04-28T17:53:52.782Z,35.67
2023-04-28T17:56:20.323Z,35.71
2023-04-28T17:58:47.787Z,35.81
2023-04-28T18:01:15.662Z,35.93
2023-04-28T18:03:43.664Z,35.89
2023-04-28T18:06:11.578Z,35.90
2023-04-28T18:08:40.096Z,35.83
2023-04-28T18:11:10.242Z,35.76
2023-04-28T18:13:38.323Z,35.65
2023-04-28T18:16:05.975Z,35.63
2023-04-28T18:18:35.636Z,35.49
2023-04-28T18:21:03.480Z,35.40
2023-04-28T18:23:31.096Z,35.31
2023-04-28T18:25:59.138Z,35.21
2023-04-28T18:28:26.696Z,35.15
2023-04-28T18:30:54.375Z,35.06
2023-04-28T18:33:26.236Z,34.98
2023-04-28T18:36:01.771Z,34.88
2023-04-28T18:38:31.799Z,34.91
2023-04-28T18:40:59.425Z,34.88
2023-04-28T18:43:28.176Z,34.81
2023-04-28T18:45:56.368Z,34.71
2023-04-28T18:48:24.819Z,34.64
2023-04-28T18:50:55.624Z,34.57
2023-04-28T18:53:23.597Z,34.48
2023-04-28T18:55:54.891Z,34.47
2023-04-28T18:58:22.952Z,34.40
2023-04-28T19:00:51.130Z,34.39
2023-04-28T19:03:21.289Z,34.28
2023-04-28T19:05:50.093Z,34.19
2023-04-28T19:08:17.839Z,34.12
2023-04-28T19:10:46.058Z,34.08
2023-04-28T19:13:16.729Z,34.06
2023-04-28T19:15:44.562Z,34.01
2023-04-28T19:18:13.174Z,34.02
2023-04-28T19:20:42.833Z,34.05
2023-04-28T19:23:11.546Z,34.07
2023-04-28T19:25:39.974Z,34.05
2023-04-28T19:28:08.480Z,34.12
2023-04-28T19:30:37.836Z,34.18
2023-04-28T19:33:06.613Z,34.20
2023-04-28T19:35:35.544Z,34.20
2023-04-28T19:38:03.706Z,34.25
2023-04-28T19:40:31.985Z,34.26
2023-04-28T19:43:00.508Z,34.32
2023-04-28T19:45:28.693Z,34.34
2023-04-28T19:47:57.193Z,34.36
2023-04-28T19:50:26.198Z,34.37
2023-04-28T19:52:54.472Z,34.39
2023-04-28T19:55:23.494Z,34.41
2023-04-28T19:57:53.581Z,34.45
2023-04-28T20:00:22.977Z,34.46
2023-04-28T20:02:52.941Z,34.49
2023-04-28T20:05:21.414Z,34.54
2023-04-28T20:07:49.689Z,34.57
2023-04-28T20:10:19.633Z,34.62
2023-04-28T20:12:47.578Z,34.64
2023-04-28T20:15:18.485Z,34.67
2023-04-28T20:17:47.353Z,34.69
2023-04-28T20:20:14.934Z,34.68
2023-04-28T20:22:42.482Z,34.78
2023-04-28T20:25:11.037Z,34.84
2023-04-28T20:27:38.881Z,34.86
2023-04-28T20:30:07.793Z,34.90
2023-04-28T20:32:37.192Z,34.95
2023-04-28T20:35:06.803Z,34.92
2023-04-28T20:37:34.191Z,34.91
2023-04-28T20:40:01.885Z,34.92
2023-04-28T20:42:29.351Z,34.92
2023-04-28T20:44:56.825Z,35.03
2023-04-28T20:47:24.776Z,35.02
2023-04-28T20:49:52.555Z,35.04
2023-04-28T20:52:20.430Z,35.12
2023-04-28T20:54:48.121Z,35.16
2023-04-28T20:57:15.562Z,35.20
2023-04-28T20:59:42.962Z,35.23
2023-04-28T21:02:11.044Z,35.27
2023-04-28T21:04:38.505Z,35.35
2023-04-28T21:07:06.100Z,35.35
2023-04-28T21:09:35.819Z,35.39
2023-04-28T21:12:03.697Z,35.41
2023-04-28T21:14:31.148Z,35.40
2023-04-28T21:16:58.951Z,35.50
2023-04-28T21:19:26.565Z,35.53
2023-04-28T21:21:54.222Z,35.61
2023-04-28T21:24:22.125Z,35.53
2023-04-28T21:26:49.596Z,35.50
2023-04-28T21:29:18.492Z,35.35
2023-04-28T21:31:46.991Z,35.30
2023-04-28T21:34:14.612Z,35.23
2023-04-28T21:36:42.183Z,35.28
2023-04-28T21:39:10.456Z,35.32
2023-04-28T21:41:38.393Z,35.35
2023-04-28T21:44:06.086Z,35.39
2023-04-28T21:46:34.292Z,35.40
2023-04-28T21:49:01.790Z,35.43
2023-04-28T21:51:29.427Z,35.46
2023-04-28T21:53:57.227Z,35.58
2023-04-28T21:56:24.659Z,35.70
2023-04-28T21:58:52.098Z,35.68
2023-04-28T22:01:19.897Z,35.73
2023-04-28T22:03:47.876Z,35.75
2023-04-28T22:06:18.029Z,35.78
2023-04-28T22:08:46.588Z,35.79
2023-04-28T22:11:14.291Z,35.83
2023-04-28T22:13:41.665Z,35.86
2023-04-28T22:16:09.196Z,35.88
2023-04-28T22:18:37.019Z,35.92
2023-04-28T22:21:06.901Z,35.93
2023-04-28T22:23:34.299Z,35.95
2023-04-28T22:26:01.998Z,35.99
2023-04-28T22:28:29.521Z,36.04
2023-04-28T22:30:57.278Z,36.09
2023-04-28T22:33:24.990Z,36.10
2023-04-28T22:35:52.398Z,36.10
2023-04-28T22:38:19.775Z,36.13
2023-04-28T22:40:47.454Z,36.15
2023-04-28T22:43:14.983Z,36.17
2023-04-28T22:45:48.051Z,36.22
2023-04-28T22:48:16.770Z,36.24
2023-04-28T22:50:46.093Z,36.28
2023-04-28T22:53:13.572Z,36.39
2023-04-28T22:55:42.990Z,36.38
2023-04-28T22:58:10.878Z,36.42
2023-04-28T23:00:38.283Z,36.41
2023-04-28T23:03:06.093Z,36.46
2023-04-28T23:05:36.568Z,36.46
2023-04-28T23:08:04.727Z,36.44
2023-04-28T23:10:32.391Z,36.45
2023-04-28T23:13:00.193Z,36.44
2023-04-28T23:15:27.570Z,36.45
2023-04-28T23:17:55.389Z,36.46
2023-04-28T23:20:22.798Z,36.45
2023-04-28T23:22:50.515Z,36.45
2023-04-28T23:25:18.455Z,36.45
2023-04-28T23:27:46.076Z,36.45
2023-04-28T23:30:14.903Z,36.46
2023-04-28T23:32:42.845Z,36.45
2023-04-28T23:35:10.682Z,36.45
2023-04-28T23:37:38.103Z,36.46
2023-04-28T23:40:06.811Z,36.46
2023-04-28T23:42:34.327Z,36.46
2023-04-28T23:45:01.757Z,36.46
2023-04-28T23:47:30.708Z,36.47
2023-04-28T23:49:58.190Z,36.47
2023-04-28T23:52:25.590Z,36.49
2023-04-28T23:54:53.884Z,36.52
2023-04-28T23:57:21.775Z,36.49
2023-04-28T23:59:49.296Z,36.46
